Canoe Narrows, Canada
Current Conditions -  °F | °C
As of 6:00 PM on Thursday 27 Nov 2014 (Local Time) from CYVT Reporting Station
Broken Clouds Broken Clouds  
Wind Chill: -24°   Ceiling: 22000
Heat Index: -9°   Visibility: 15mi
Dew Point: -15°   Wind: 7mph
Humidity: 77%   Direction: 10°N
Pressure: 30.26"   Gusts: NA
Location:  55.17°N, 108.15°W
Report Text: CYVT 280000Z 01006KT 15SM SCT180 BKN220 M23/M26 A3026 RMK AS3CS4 SLP296
Loading
Personal Weather Stations






























Interactive Weather Map New forecast layout! Learn more

10-Day Weather Forecast

Advertisements
Track Severe Weather on mobile